Bakersfield, California
Current Conditions -  °F | °C
As of 12:54 AM on Monday 24 Nov 2014 (Local Time) from KBFL Reporting Station
Clear Clear  
Wind Chill: 47°   Ceiling: Unl
Heat Index: 49°   Visibility: 9mi
Dew Point: 42°   Wind: 5mph
Humidity: 77%   Direction: 110°ESE
Pressure: 30.31"   Gusts: NA
Location:  35.37°N, 119.01°W
Report Text: KBFL 240854Z AUTO 11004KT 9SM CLR 09/06 A3031 RMK AO2 SLP263 T00940056 50001
Loading
Personal Weather Stations






























Interactive Weather Map New forecast layout! Learn more

10-Day Weather Forecast

Advertisements
Track Severe Weather on mobile